Asahikawa, Japan
Current Conditions -  °F | °C
As of 8:00 PM on Wednesday 26 Nov 2014 (Local Time) from RJEC Reporting Station
Clear Clear  
Wind Chill: 19°   Ceiling: Unl
Heat Index: 27°   Visibility: 6mi
Dew Point: 21°   Wind: 7mph
Humidity: 80%   Direction: 150°SSE
Pressure: 30.18"   Gusts: NA
Location:  43.77°N, 142.36°E
Report Text: RJEC 261100Z 15006KT CAVOK M03/M06 Q1022
Loading
Personal Weather Stations






























Interactive Weather Map New forecast layout! Learn more

10-Day Weather Forecast

Advertisements
Track Severe Weather on mobile